createdAt,value
2018-02-08T00:11:44.909Z,-0.40
2018-02-08T00:14:13.707Z,-0.50
2018-02-08T00:16:42.577Z,-0.50
2018-02-08T00:19:10.679Z,-0.50
2018-02-08T00:21:39.795Z,-0.60
2018-02-08T00:24:09.844Z,-0.60
2018-02-08T00:26:38.329Z,-0.60
2018-02-08T00:29:07.728Z,-0.60
2018-02-08T00:31:37.295Z,-0.60
2018-02-08T00:51:22.896Z,-0.70
2018-02-08T00:53:51.647Z,-0.70
2018-02-08T00:56:21.048Z,-0.60
2018-02-08T00:58:49.752Z,-0.60
2018-02-08T01:01:18.099Z,-0.60
2018-02-08T01:03:46.936Z,-0.70
2018-02-08T01:06:15.059Z,-0.70
2018-02-08T01:08:44.082Z,-0.70
2018-02-08T01:11:13.047Z,-0.80
2018-02-08T01:30:59.153Z,-0.80
2018-02-08T01:33:28.220Z,-0.80
2018-02-08T01:35:57.438Z,-0.80
2018-02-08T01:38:27.087Z,-0.80
2018-02-08T01:40:56.726Z,-0.80
2018-02-08T01:43:26.353Z,-0.70
2018-02-08T01:45:55.440Z,-0.70
2018-02-08T01:48:23.539Z,-0.80
2018-02-08T01:50:52.035Z,-0.80
2018-02-08T02:10:40.564Z,-1.00
2018-02-08T02:13:09.534Z,-1.00
2018-02-08T02:15:38.112Z,-1.00
2018-02-08T02:18:06.179Z,-1.00
2018-02-08T02:20:34.752Z,-1.00
2018-02-08T02:23:03.345Z,-1.00
2018-02-08T02:25:32.128Z,-1.00
2018-02-08T02:28:01.200Z,-1.00
2018-02-08T02:30:30.023Z,-1.00
2018-02-08T02:50:16.841Z,-1.00
2018-02-08T02:52:45.737Z,-0.90
2018-02-08T02:55:15.001Z,-0.90
2018-02-08T02:57:44.324Z,-0.90
2018-02-08T03:00:13.713Z,-0.90
2018-02-08T03:02:42.391Z,-1.00
2018-02-08T03:05:10.661Z,-1.00
2018-02-08T03:07:39.154Z,-1.00
2018-02-08T03:10:07.558Z,-1.00
2018-02-08T03:29:53.797Z,-0.90
2018-02-08T03:32:23.051Z,-1.00
2018-02-08T03:34:51.824Z,-1.00
2018-02-08T03:37:21.207Z,-1.00
2018-02-08T03:39:50.089Z,-0.90
2018-02-08T03:42:18.887Z,-1.00
2018-02-08T03:44:47.587Z,-0.90
2018-02-08T03:47:16.230Z,-0.90
2018-02-08T03:49:44.946Z,-0.90
2018-02-08T04:09:31.224Z,-1.00
2018-02-08T04:11:59.709Z,-0.90
2018-02-08T04:14:28.091Z,-0.90
2018-02-08T04:16:57.677Z,-0.90
2018-02-08T04:19:26.331Z,-1.00
2018-02-08T04:21:55.035Z,-1.00
2018-02-08T04:24:23.790Z,-1.10
2018-02-08T04:26:52.054Z,-1.10
2018-02-08T04:29:21.601Z,-1.00
2018-02-08T04:49:07.440Z,-0.70
2018-02-08T04:51:36.102Z,-0.70
2018-02-08T04:54:05.419Z,-0.70
2018-02-08T04:56:33.578Z,-0.70
2018-02-08T04:59:03.246Z,-0.80
2018-02-08T05:01:31.902Z,-0.80
2018-02-08T05:04:01.169Z,-0.80
2018-02-08T05:06:30.065Z,-0.80
2018-02-08T05:08:59.082Z,-0.90
2018-02-08T05:28:45.469Z,-0.70
2018-02-08T05:31:14.226Z,-0.70
2018-02-08T05:33:43.244Z,-0.70
2018-02-08T05:36:11.484Z,-0.70
2018-02-08T05:38:39.970Z,-0.70
2018-02-08T05:41:09.845Z,-0.70
2018-02-08T05:43:38.123Z,-0.80
2018-02-08T05:46:07.015Z,-0.80
2018-02-08T05:48:36.302Z,-0.80
2018-02-08T06:08:21.938Z,-0.80
2018-02-08T06:10:51.041Z,-0.80
2018-02-08T06:13:20.180Z,-0.80
2018-02-08T06:15:48.389Z,-0.70
2018-02-08T06:18:17.936Z,-0.60
2018-02-08T06:20:46.954Z,-0.60
2018-02-08T06:23:15.049Z,-0.60
2018-02-08T06:25:44.601Z,-0.50
2018-02-08T06:28:13.870Z,-0.50
2018-02-08T06:48:01.204Z,-0.50
2018-02-08T06:50:30.282Z,-0.50
2018-02-08T06:52:59.252Z,-0.50
2018-02-08T06:55:28.200Z,-0.60
2018-02-08T06:57:56.856Z,-0.60
2018-02-08T07:00:25.849Z,-0.60
2018-02-08T07:02:54.008Z,-0.60
2018-02-08T07:05:22.873Z,-0.60
2018-02-08T07:07:51.049Z,-0.60
2018-02-08T07:27:35.304Z,-0.40
2018-02-08T07:30:04.932Z,-0.40
2018-02-08T07:32:34.164Z,-0.50
2018-02-08T07:35:02.595Z,-0.40
2018-02-08T07:37:31.843Z,-0.40
2018-02-08T07:40:00.538Z,-0.30
2018-02-08T07:42:29.865Z,-0.20
2018-02-08T07:44:58.474Z,-0.20
2018-02-08T07:47:27.495Z,-0.10
2018-02-08T08:07:15.168Z,0.10
2018-02-08T08:09:44.475Z,0.10
2018-02-08T08:12:13.724Z,0.10
2018-02-08T08:14:43.341Z,0.20
2018-02-08T08:17:11.903Z,0.10
2018-02-08T08:19:40.388Z,0.20
2018-02-08T08:22:09.499Z,0.20
2018-02-08T08:24:38.218Z,0.20
2018-02-08T08:27:06.444Z,0.30
2018-02-08T08:46:51.274Z,0.60
2018-02-08T08:49:19.584Z,0.70
2018-02-08T08:51:48.032Z,0.90
2018-02-08T08:54:16.226Z,0.90
2018-02-08T08:56:44.850Z,1.00
2018-02-08T08:59:13.811Z,1.00
2018-02-08T09:01:43.342Z,1.10
2018-02-08T09:04:12.978Z,1.10
2018-02-08T09:06:43.218Z,1.20
2018-02-08T09:26:29.027Z,2.20
2018-02-08T09:28:58.177Z,2.20
2018-02-08T09:31:26.613Z,2.20
2018-02-08T09:33:54.836Z,2.20
2018-02-08T09:36:24.414Z,2.20
2018-02-08T09:38:52.803Z,2.30
2018-02-08T09:41:22.124Z,2.50
2018-02-08T09:43:51.250Z,2.70
2018-02-08T09:46:19.736Z,3.00
2018-02-08T10:06:04.044Z,3.40
2018-02-08T10:08:32.329Z,3.40
2018-02-08T10:11:01.018Z,3.40
2018-02-08T10:13:30.053Z,3.40
2018-02-08T10:15:59.679Z,3.50
2018-02-08T10:18:28.698Z,3.50
2018-02-08T10:20:58.489Z,3.60
2018-02-08T10:23:28.857Z,3.70
2018-02-08T10:25:58.661Z,3.70
2018-02-08T10:45:42.672Z,4.50
2018-02-08T10:48:11.088Z,4.60
2018-02-08T10:50:40.189Z,4.50
2018-02-08T10:53:09.329Z,4.60
2018-02-08T10:55:38.453Z,4.50
2018-02-08T10:58:07.305Z,4.50
2018-02-08T11:00:35.984Z,4.20
2018-02-08T11:03:05.202Z,4.30
2018-02-08T11:05:35.256Z,4.50
2018-02-08T11:25:21.532Z,3.80
2018-02-08T11:27:51.466Z,3.80
2018-02-08T11:30:20.139Z,3.70
2018-02-08T11:32:49.125Z,3.80
2018-02-08T11:35:18.464Z,3.90
2018-02-08T11:37:47.105Z,4.00
2018-02-08T11:40:16.547Z,3.90
2018-02-08T11:42:45.389Z,3.70
2018-02-08T11:45:15.138Z,3.80
2018-02-08T12:05:01.017Z,3.90
2018-02-08T12:07:29.758Z,3.90
2018-02-08T12:09:59.058Z,4.00
2018-02-08T12:12:28.182Z,4.30
2018-02-08T12:14:56.538Z,4.30
2018-02-08T12:17:26.349Z,5.00
2018-02-08T12:19:56.032Z,5.70
2018-02-08T12:22:25.646Z,5.70
2018-02-08T12:24:55.301Z,5.50
2018-02-08T12:44:43.166Z,4.90
2018-02-08T12:47:11.892Z,4.90
2018-02-08T12:49:41.050Z,5.00
2018-02-08T12:52:09.292Z,4.80
2018-02-08T12:54:38.201Z,4.80
2018-02-08T12:57:07.740Z,5.00
2018-02-08T12:59:37.477Z,5.30
2018-02-08T13:02:06.634Z,5.30
2018-02-08T13:04:36.086Z,5.30
2018-02-08T13:24:21.497Z,4.70
2018-02-08T13:26:50.794Z,4.60
2018-02-08T13:29:20.028Z,4.30
2018-02-08T13:31:50.347Z,4.00
2018-02-08T13:34:19.406Z,4.00
2018-02-08T13:36:47.687Z,4.00
2018-02-08T13:39:16.045Z,3.90
2018-02-08T13:41:45.513Z,3.80
2018-02-08T14:01:31.790Z,3.70
2018-02-08T14:04:00.532Z,3.60
2018-02-08T14:06:29.013Z,3.60
2018-02-08T14:08:59.000Z,3.60
2018-02-08T14:11:27.670Z,3.60
2018-02-08T14:13:57.001Z,3.50
2018-02-08T14:16:26.649Z,3.50
2018-02-08T14:19:01.103Z,3.50
2018-02-08T14:41:41.995Z,3.00
2018-02-08T14:44:12.291Z,2.90
2018-02-08T15:02:03.417Z,2.60
2018-02-08T15:04:32.850Z,2.30
2018-02-08T15:07:01.731Z,2.30
2018-02-08T15:09:30.808Z,2.50
2018-02-08T15:29:15.528Z,3.50
2018-02-08T15:31:44.292Z,3.50
2018-02-08T15:34:22.492Z,3.40
2018-02-08T15:36:51.047Z,3.30
2018-02-08T15:39:21.130Z,3.10
2018-02-08T15:41:50.244Z,2.80
2018-02-08T15:44:18.485Z,2.70
2018-02-08T15:46:47.414Z,2.50
2018-02-08T16:06:32.222Z,1.50
2018-02-08T16:09:00.410Z,1.40
2018-02-08T16:11:29.965Z,1.30
2018-02-08T16:13:58.163Z,1.20
2018-02-08T16:16:26.789Z,1.10
2018-02-08T16:18:55.924Z,1.10
2018-02-08T16:21:24.436Z,1.00
2018-02-08T16:23:52.559Z,0.90
2018-02-08T16:26:20.905Z,0.80
2018-02-08T16:46:04.687Z,0.70
2018-02-08T16:48:34.075Z,0.70
2018-02-08T16:51:03.552Z,0.80
2018-02-08T16:53:32.406Z,0.70
2018-02-08T16:56:01.908Z,0.70
2018-02-08T16:58:30.738Z,0.70
2018-02-08T17:00:59.997Z,0.70
2018-02-08T17:03:29.622Z,0.60
2018-02-08T17:05:58.236Z,0.60
2018-02-08T17:25:43.203Z,0.20
2018-02-08T17:28:11.544Z,0.10
2018-02-08T17:30:39.993Z,0.10
2018-02-08T17:33:09.406Z,0.00
2018-02-08T17:35:38.136Z,-0.10
2018-02-08T17:38:07.267Z,-0.20
2018-02-08T17:40:36.424Z,-0.20
2018-02-08T17:43:05.482Z,-0.40
2018-02-08T17:45:34.775Z,-0.40
2018-02-08T18:05:19.282Z,-0.70
2018-02-08T18:07:47.396Z,-0.80
2018-02-08T18:10:15.921Z,-0.90
2018-02-08T18:12:44.367Z,-1.00
2018-02-08T18:15:13.797Z,-1.00
2018-02-08T18:17:42.459Z,-1.10
2018-02-08T18:20:11.892Z,-1.10
2018-02-08T18:22:40.533Z,-1.20
2018-02-08T18:25:09.395Z,-1.10
2018-02-08T18:44:54.306Z,-1.10
2018-02-08T18:47:23.408Z,-1.10
2018-02-08T18:49:52.375Z,-1.00
2018-02-08T18:52:21.306Z,-1.00
2018-02-08T18:54:50.507Z,-1.00
2018-02-08T18:57:19.171Z,-0.90
2018-02-08T18:59:49.125Z,-0.70
2018-02-08T19:02:17.522Z,-0.80
2018-02-08T19:04:47.009Z,-0.70
2018-02-08T19:24:31.926Z,-0.60
2018-02-08T19:27:01.438Z,-0.50
2018-02-08T19:29:30.005Z,-0.60
2018-02-08T19:31:58.971Z,-0.50
2018-02-08T19:34:28.367Z,-0.50
2018-02-08T19:36:56.952Z,-0.50
2018-02-08T19:39:30.927Z,-0.60
2018-02-08T19:41:59.831Z,-0.60
2018-02-08T20:05:39.144Z,-0.90
2018-02-08T20:08:07.873Z,-0.90
2018-02-08T20:10:36.204Z,-0.90
2018-02-08T20:13:05.455Z,-0.90
2018-02-08T20:15:35.586Z,-1.00
2018-02-08T20:18:03.781Z,-1.00
2018-02-08T20:20:32.280Z,-1.10
2018-02-08T20:23:01.022Z,-1.00
2018-02-08T20:25:29.221Z,-1.00
2018-02-08T20:45:14.264Z,-1.30
2018-02-08T20:47:42.522Z,-1.30
2018-02-08T20:50:11.077Z,-1.40
2018-02-08T20:52:39.432Z,-1.40
2018-02-08T20:55:08.684Z,-1.60
2018-02-08T20:57:36.873Z,-1.60
2018-02-08T21:00:06.065Z,-1.70
2018-02-08T21:02:34.652Z,-1.70
2018-02-08T21:05:03.823Z,-1.80
2018-02-08T21:24:49.852Z,-1.80
2018-02-08T21:27:18.014Z,-1.80
2018-02-08T21:29:46.731Z,-1.70
2018-02-08T21:32:15.944Z,-1.60
2018-02-08T21:34:44.637Z,-1.60
2018-02-08T21:37:14.573Z,-1.50
2018-02-08T21:39:43.585Z,-1.40
2018-02-08T21:42:12.443Z,-1.30
2018-02-08T21:44:41.257Z,-1.30
2018-02-08T22:04:27.400Z,-1.00
2018-02-08T22:06:56.587Z,-1.10
2018-02-08T22:09:25.311Z,-1.00
2018-02-08T22:11:53.279Z,-1.00
2018-02-08T22:14:21.336Z,-1.00
2018-02-08T22:16:49.516Z,-0.90
2018-02-08T22:19:18.644Z,-1.00
2018-02-08T22:21:47.078Z,-1.00
2018-02-08T22:24:15.565Z,-1.00
2018-02-08T22:44:01.276Z,-0.80
2018-02-08T22:46:30.041Z,-0.80
2018-02-08T22:48:58.528Z,-0.80
2018-02-08T22:51:26.694Z,-0.90
2018-02-08T22:53:55.811Z,-0.90
2018-02-08T22:56:24.291Z,-0.90
2018-02-08T22:58:52.993Z,-0.90
2018-02-08T23:01:21.327Z,-0.90
2018-02-08T23:03:49.635Z,-0.90
2018-02-08T23:23:37.475Z,-0.90
2018-02-08T23:26:07.781Z,-0.80
2018-02-08T23:28:37.122Z,-0.80
2018-02-08T23:31:05.459Z,-0.70
2018-02-08T23:33:34.715Z,-0.70
2018-02-08T23:36:03.394Z,-0.70
2018-02-08T23:38:32.300Z,-0.60
2018-02-08T23:41:00.735Z,-0.50
2018-02-08T23:43:29.272Z,-0.60
